METAR Data
IDs: Format: Raw Decoded Include TAF

Data at: 2222 UTC 25 Oct 2021

PANN 252153Z AUTO 00000KT 10SM UP OVC012 M02/M04 A2922 RMK AO2 SLP904 P0000 T10171044 TSNO
PANN 252135Z AUTO 00000KT 10SM UP OVC010 M02/M04 A2922 RMK AO2 P0000 T10171044 TSNO
PANN 252053Z AUTO 00000KT 10SM UP BKN008 OVC012 M02/M05 A2922 RMK AO2 SLP904 P0000 60000 T10171050 58001 TSNO
PANN 252044Z AUTO 09003KT 10SM UP OVC011 M02/M04 A2922 RMK AO2 P0000 T10171044 TSNO
PANN 252011Z AUTO 00000KT 10SM UP OVC009 M02/M05 A2922 RMK AO2 P0000 T10221050 TSNO
PANN 251953Z AUTO 09003KT 10SM UP OVC012 M02/M05 A2922 RMK AO2 SLP906 P0000 T10221050 TSNO
PANN 251901Z AUTO 09003KT 10SM UP OVC011 M03/M05 A2923 RMK AO2 P0000 T10281050 TSNO
PANN 251853Z AUTO 09003KT 10SM UP BKN009 OVC016 M03/M06 A2923 RMK AO2 UPB14 CIG 009V013 SLP906 P0000 T10281056 TSNO
PANN 251753Z AUTO 00000KT 10SM OVC007 M03/M06 A2922 RMK AO2 SLP906 60000 T10281056 11028 21033 56005 TSNO
PANN 251653Z AUTO 00000KT 10SM OVC007 M03/M06 A2923 RMK AO2 SLP907 T10331056 TSNO
PANN 251624Z AUTO 00000KT 10SM BKN006 OVC034 M03/M06 A2923 RMK AO2 T10331056 TSNO
PANN 251611Z AUTO 10003KT 10SM SCT006 BKN034 OVC049 M03/M06 A2923 RMK AO2 T10331056 TSNO
PANN 251604Z AUTO 10004KT 10SM SCT006 BKN022 OVC049 M03/M06 A2923 RMK AO2 T10331061 TSNO
PANN 251553Z AUTO 09004KT 10SM SCT007 SCT022 OVC049 M03/M06 A2923 RMK AO2 UPB27E40 SLP907 P0000 T10331061 TSNO
PANN 251545Z AUTO 09004KT 10SM FEW007 SCT022 OVC049 M03/M06 A2923 RMK AO2 UPB27E40 P0000 T10331061 TSNO
PANN 251531Z AUTO 07004KT 10SM UP SCT007 BKN022 OVC049 M03/M06 A2923 RMK AO2 UPB27 P0000 T10331061 TSNO
PANN 251453Z AUTO 10004KT 10SM OVC008 M03/M06 A2924 RMK AO2 UPB23E29 SLP910 P0000 60000 T10331061 58007 TSNO
PANN 251353Z AUTO 08005KT 10SM OVC007 M03/M06 A2924 RMK AO2 UPE18 SLP913 P0000 T10331061 TSNO
PANN 251253Z AUTO 09006KT 10SM UP OVC007 M03/M06 A2925 RMK AO2 UPB51 SLP916 P0000 T10331061 TSNO
PANN 251153Z AUTO 08006KT 10SM OVC007 M03/M06 A2926 RMK AO2 UPE09B28E42 SLP918 P0000 60000 7//// T10331061 11033 21033 58011 TSNO
PANN 251053Z AUTO 09005KT 9SM UP OVC007 M03/M06 A2927 RMK AO2 SNB05E15 SLP921 P0000 T10331061 TSNO
PANN 250953Z AUTO 09004KT 6SM UP OVC009 M03/M06 A2928 RMK AO2 SLP926 P0000 T10331061 TSNO
PANN 250932Z AUTO 08005KT 7SM UP OVC010 M03/M06 A2928 RMK AO2 P0000 T10331061 TSNO
PANN 250853Z AUTO 08006KT 5SM UP OVC008 M03/M06 A2929 RMK AO2 UPB00SNE00B36E46 SLP929 P0000 60000 T10331061 410221083 56012 TSNO
PANN 250815Z AUTO 08006KT 3SM UP OVC009 M03/M06 A2929 RMK AO2 UPB00SNE00 P0000 T10331061 TSNO
PANN 250806Z AUTO 08006KT 2 1/2SM UP OVC009 M03/M06 A2930 RMK AO2 UPB00SNE00 P0000 T10331061 TSNO
PANN 250753Z AUTO 08006KT 2SM -SN OVC011 M03/M06 A2930 RMK AO2 UPB0657E17B35E37SNE0657B17E35B37 SLP931 P0000 T10331061 TSNO
PANN 250723Z AUTO 08006KT 2SM -SN OVC010 M03/M06 A2930 RMK AO2 UPB0657E17SNE0657B17 P0000 T10331061 TSNO
PANN 250707Z AUTO 08005KT 4SM UP OVC012 M03/M06 A2931 RMK AO2 UPB0657SNE0657 P0000 T10331061 TSNO
PANN 250653Z AUTO 07004KT 2 1/2SM -SN BR OVC012 M03/M06 A2931 RMK AO2 UPE16B45E49SNB16E45B47E48B49 SLP936 P0000 T10331056 TSNO
PANN 250610Z AUTO 08005KT 7SM UP BKN011 OVC038 M03/M06 A2933 RMK AO2 P0000 T10331056 TSNO
PANN 250553Z AUTO 08004KT 6SM UP BR OVC037 M03/M06 A2933 RMK AO2 UPB07SNE07B12E22 SLPNO P0000 60002 T10331056 11022 21033 58015 TSNO
PANN 250539Z AUTO 09005KT 7SM UP SCT021 OVC037 M03/M06 A2933 RMK AO2 UPB07SNE07B12E22 P0000 T10281056 TSNO
PANN 250501Z AUTO 08004KT 3SM -SN SCT011 BKN019 OVC043 M03/M06 A2934 RMK AO2 P0000 T10281056 TSNO
PANN 250450Z AUTO 07003KT 2SM -SN BKN011 BKN019 OVC043 M03/M06 A2935 RMK AO2 SLP947 P0001 T10281056 TSNO
PANN 250449Z AUTO 08004KT 2SM -SN BKN010 BKN019 OVC043 M03/M06 A2935 RMK AO2 P0001 TSNO
PANN 250441Z AUTO 08003KT 2SM -SN SCT010 SCT019 OVC041 M03/M06 A2935 RMK AO2 P0001 T10281056 TSNO
PANN 250425Z AUTO 07003KT 2SM -SN BR SCT010 BKN025 OVC041 M03/M05 A2935 RMK AO2 P0001 T10281050 TSNO
PANN 250416Z AUTO 09004KT 1 1/2SM -SN BR BKN010 BKN014 OVC041 M03/M05 A2935 RMK AO2 P0001 T10281050 TSNO
PANN 250403Z AUTO 09003KT 2 1/2SM -SN BR BKN010 BKN029 OVC040 M03/M05 A2935 RMK AO2 P0001 T10281050 TSNO
PANN 250353Z AUTO 09003KT 4SM -SN BR FEW012 OVC044 M03/M05 A2936 RMK AO2 UPB0257E02SNE0257B02 SLP951 P0000 T10281050 TSNO
PANN 250253Z AUTO 11003KT 3SM -SN BR OVC035 M03/M05 A2937 RMK AO2 UPE32SNB32 SLP956 P0000 60001 T10281050 57014 TSNO
PANN 250246Z AUTO 00000KT 2 1/2SM -SN BR OVC035 M03/M05 A2937 RMK AO2 UPE32SNB32 P0000 T10281050 TSNO
PANN 250153Z AUTO 00000KT 8SM UP OVC037 M02/M05 A2939 RMK AO2 UPB25SNE25 SLP961 P0000 T10221050 TSNO
PANN 250131Z AUTO 00000KT 4SM UP BKN037 OVC044 M02/M05 A2939 RMK AO2 UPB25SNE25 P0000 T10221050 TSNO
PANN 250124Z AUTO 00000KT 2 1/2SM -SN OVC040 M02/M05 A2939 RMK AO2 P0000 T10221050 TSNO
PANN 250104Z AUTO 00000KT 1 1/4SM -SN OVC044 M02/M05 A2939 RMK AO2 P0000 T10221050 TSNO
PANN 250053Z AUTO 00000KT 2 1/2SM -SN OVC042 M02/M05 A2940 RMK AO2 SLP965 P0001 T10221050 TSNO
PANN 250032Z AUTO 00000KT 2 1/2SM -SN BR OVC040 M03/M05 A2940 RMK AO2 P0001 T10281050 TSNO
PANN 242353Z AUTO 00000KT 1 1/4SM -SN OVC033 M03/M06 A2941 RMK AO2 SLP970 P0000 60002 T10281056 11028 21056 58006 TSNO
PANN 242316Z AUTO 00000KT 1 1/4SM -SN BKN030 OVC038 M03/M06 A2942 RMK AO2 P0000 T10281056 TSNO
PANN 242305Z AUTO 00000KT 1SM -SN OVC029 M03/M06 A2942 RMK AO2 P0000 T10281056 TSNO
PANN 242257Z AUTO 00000KT 2 1/2SM -SN FEW007 OVC028 M03/M06 A2943 RMK AO2 P0000 T10281056 TSNO
PANN 242253Z AUTO 00000KT 5SM -SN OVC028 M03/M06 A2943 RMK AO2 SLP975 P0001 T10281056 TSNO
PANN 242248Z AUTO 00000KT 4SM -SN FEW007 OVC028 M03/M06 A2943 RMK AO2 P0001 TSNO
PANN 242236Z AUTO 00000KT 2SM -SN FEW007 OVC028 M03/M06 A2943 RMK AO2 P0001 T10281056 TSNO
PANN 242153Z AUTO 00000KT 1SM -SN BR FEW007 OVC026 M03/M06 A2943 RMK AO2 SLP977 P0001 T10331056 TSNO
PANN 242137Z AUTO 00000KT 1 3/4SM -SN SCT007 OVC026 M03/M06 A2943 RMK AO2 P0001 T10331061 TSNO
PANN 242133Z AUTO 00000KT 3SM -SN BKN007 OVC026 M03/M06 A2943 RMK AO2 P0001 T10331061 TSNO
PANN 242125Z AUTO 00000KT 3SM -SN SCT007 BKN014 OVC026 M03/M06 A2943 RMK AO2 P0001 T10331061 TSNO
PANN 242120Z AUTO 00000KT 2 1/2SM -SN FEW007 SCT014 OVC026 M03/M06 A2943 RMK AO2 P0000 T10331061 TSNO
PANN 242104Z AUTO 00000KT 2SM -SN BR FEW014 OVC027 M04/M06 A2943 RMK AO2 P0000 T10391061 TSNO
PANN 242053Z AUTO 00000KT 3SM -SN BR SCT012 OVC027 M04/M06 A2943 RMK AO2 UPE20SNB20 SLP976 P0000 60000 T10391061 50002 TSNO
PANN 242051Z AUTO 00000KT 3SM -SN BR SCT012 OVC027 M04/M06 A2943 RMK AO2 UPE20SNB20 P0000 TSNO
PANN 241953Z AUTO 00000KT 10SM UP SCT010 BKN014 OVC026 M04/M07 A2943 RMK AO2 SLP978 P0000 T10441072 TSNO
PANN 241931Z AUTO 29003KT 10SM UP BKN010 OVC026 M05/M07 A2943 RMK AO2 P0000 T10501072 TSNO
PANN 241853Z AUTO 27003KT 10SM UP OVC008 M05/M08 A2942 RMK AO2 UPB01E12B50 SLP975 P0000 T10501078 TSNO
PANN 241829Z AUTO VRB03KT 10SM OVC008 M06/M08 A2942 RMK AO2 UPB01E12 P0000 T10561078 TSNO
PANN 241653Z AUTO 00000KT 10SM OVC005 M06/M09 A2943 RMK AO2 SLP976 T10611089 TSNO $
PANN 241553Z AUTO 00000KT 10SM OVC005 M06/M09 A2942 RMK AO2 SLP972 T10611089 TSNO $
PANN 241453Z AUTO 00000KT 10SM OVC004 M07/M09 A2941 RMK AO2 SLP969 T10671089 53014 TSNO $
PANN 241353Z AUTO 00000KT 10SM OVC004 M07/M09 A2939 RMK AO2 SLP962 T10721094 TSNO $
PANN 241253Z AUTO 00000KT 10SM OVC004 M07/M10 A2938 RMK AO2 SLP958 T10721100 TSNO $
PANN 241153Z AUTO 00000KT 6SM BR OVC002 M07/M09 A2937 RMK AO2 SLP955 I6000 T10721089 11056 21083 53015 TSNO $
PANN 241053Z AUTO 00000KT 10SM OVC004 M07/M09 A2935 RMK AO2 SLP949 T10721094 TSNO $